Paxinos, Pennsylvania
Current Conditions -  °F | °C
As of 5:53 AM on Friday 24 Oct 2014 (Local Time) from KSEG Reporting Station
Broken Clouds Broken Clouds  
Wind Chill: 13°   Ceiling: 3800
Heat Index: 13°   Visibility: 10mi
Dew Point:   Wind: 7mph
Humidity: 62%   Direction: 320°NW
Pressure: 29.94"   Gusts: NA
Location:  40.85°N, 76.59°W
Report Text: KSEG 240953Z AUTO 32006KT 10SM BKN038 13/06 A2994 RMK AO2 SLP137 T01330061
Loading
Personal Weather Stations






























Interactive Weather Map
Tropical Storm Tracking
New forecast layout! Learn more

10-Day Weather Forecast

Advertisements
Track Severe Weather on mobile